Time;durP1;ratioP1;P1;durP2;ratioP2;P2;SDS_P1;SDS_P2;PMS_P1;PMS_P2;Temp;Humidity;BMP_temperature;BMP_pressure;BME280_temperature;BME280_humidity;BME280_pressure;Samples;Min_cycle;Max_cycle;Signal;HPM_P1;HPM_P2
2022/03/05 00:01:56;;;;;;;12.55;2.00;;;;;;;-2.81;100.00;102554.06;4992322;28;20276;-41
2022/03/05 00:04:21;;;;;;;4.35;1.75;;;;;;;-2.72;100.00;102555.34;4992622;28;20633;-43
2022/03/05 00:06:49;;;;;;;2.72;1.40;;;;;;;-2.62;100.00;102548.81;4992268;28;20181;-45
2022/03/05 00:09:15;;;;;;;3.83;1.60;;;;;;;-2.67;100.00;102542.44;4992550;28;20268;-42
2022/03/05 00:11:40;;;;;;;3.25;2.00;;;;;;;-2.81;100.00;102548.81;4991933;28;20599;-43
2022/03/05 00:14:06;;;;;;;5.63;1.50;;;;;;;-2.74;100.00;102537.75;4991822;28;20621;-45
2022/03/05 00:16:31;;;;;;;2.20;1.60;;;;;;;-2.92;100.00;102544.00;4975058;28;20181;-41
2022/03/05 00:18:56;;;;;;;4.55;1.42;;;;;;;-2.90;100.00;102544.94;4992192;28;20267;-42
2022/03/05 00:21:22;;;;;;;3.28;1.70;;;;;;;-2.87;100.00;102532.81;4992086;28;20228;-44
2022/03/05 00:23:47;;;;;;;2.85;1.40;;;;;;;-2.77;100.00;102535.91;4991867;28;20170;-44
2022/03/05 00:26:13;;;;;;;4.32;1.70;;;;;;;-2.77;100.00;102537.63;4991568;28;20181;-43
2022/03/05 00:28:38;;;;;;;9.38;2.05;;;;;;;-2.88;100.00;102549.38;4992246;28;20184;-45
2022/03/05 00:31:04;;;;;;;3.30;1.65;;;;;;;-2.83;100.00;102538.25;4991369;28;20177;-49
2022/03/05 00:33:29;;;;;;;4.78;2.00;;;;;;;-2.83;100.00;102535.63;4974183;28;20697;-43
2022/03/05 00:35:55;;;;;;;6.40;1.92;;;;;;;-2.87;100.00;102533.69;4991918;28;20532;-41
2022/03/05 00:38:21;;;;;;;3.45;1.60;;;;;;;-2.84;100.00;102548.66;4991794;28;20259;-44
2022/03/05 00:40:47;;;;;;;5.03;1.65;;;;;;;-2.77;100.00;102540.25;4991969;28;20197;-48
2022/03/05 00:43:14;;;;;;;7.93;2.15;;;;;;;-2.81;100.00;102538.31;4991098;28;20193;-42
2022/03/05 00:45:40;;;;;;;4.32;1.60;;;;;;;-2.91;100.00;102550.13;4991584;28;20169;-44
2022/03/05 00:48:05;;;;;;;3.35;1.88;;;;;;;-2.85;100.00;102553.03;4991897;28;20272;-44
2022/03/05 00:50:31;;;;;;;5.78;1.60;;;;;;;-2.91;100.00;102539.63;4991716;28;20165;-45
2022/03/05 00:52:57;;;;;;;4.38;1.90;;;;;;;-2.92;100.00;102546.59;4974062;28;20276;-47
2022/03/05 00:55:23;;;;;;;2.97;1.80;;;;;;;-2.99;100.00;102556.78;4991166;28;20208;-49
2022/03/05 00:57:48;;;;;;;4.25;1.77;;;;;;;-3.12;100.00;102556.19;4991619;28;20209;-43
2022/03/05 01:00:14;;;;;;;5.70;1.98;;;;;;;-3.20;100.00;102552.31;4991423;28;20194;-43
2022/03/05 01:02:40;;;;;;;2.08;1.30;;;;;;;-3.12;100.00;102547.44;4990609;28;20192;-46
2022/03/05 01:05:06;;;;;;;3.90;1.67;;;;;;;-3.15;100.00;102556.06;4991280;28;20205;-44
2022/03/05 01:07:32;;;;;;;3.10;1.30;;;;;;;-3.12;100.00;102560.56;4991183;28;20645;-47
2022/03/05 01:09:57;;;;;;;4.47;1.50;;;;;;;-3.06;100.00;102557.31;4991118;28;20166;-47
2022/03/05 01:12:23;;;;;;;3.08;1.52;;;;;;;-3.02;100.00;102554.88;4990701;28;20314;-46
2022/03/05 01:14:49;;;;;;;1.52;1.20;;;;;;;-3.17;100.00;102560.34;4991211;28;20166;-42
2022/03/05 01:17:15;;;;;;;3.53;1.23;;;;;;;-3.10;100.00;102551.03;4991078;28;20187;-44
2022/03/05 01:19:41;;;;;;;3.10;1.40;;;;;;;-3.11;100.00;102544.88;4990873;28;20650;-42
2022/03/05 01:22:07;;;;;;;2.13;1.23;;;;;;;-3.08;100.00;102546.75;4990777;28;20577;-42
2022/03/05 01:24:33;;;;;;;2.42;1.58;;;;;;;-3.13;100.00;102564.91;4991063;28;20173;-43
2022/03/05 01:26:58;;;;;;;2.45;1.52;;;;;;;-3.10;100.00;102551.03;4990856;28;20165;-44
2022/03/05 01:29:24;;;;;;;2.85;1.20;;;;;;;-3.07;99.92;102555.53;4991000;28;20255;-42
2022/03/05 01:31:49;;;;;;;1.38;1.13;;;;;;;-3.09;100.00;102554.56;4990656;28;20248;-44
2022/03/05 01:34:14;;;;;;;3.00;1.50;;;;;;;-3.11;100.00;102552.75;4991356;28;20185;-44
2022/03/05 01:36:40;;;;;;;2.05;1.00;;;;;;;-3.15;99.87;102552.53;4991096;28;20176;-42
2022/03/05 01:39:05;;;;;;;1.98;1.33;;;;;;;-3.17;99.36;102554.19;4990538;28;20181;-42
2022/03/05 01:41:31;;;;;;;2.28;1.27;;;;;;;-3.20;99.19;102546.19;4990530;28;20733;-46
2022/03/05 01:43:57;;;;;;;3.30;1.50;;;;;;;-3.23;99.13;102548.69;4989946;28;20181;-45
2022/03/05 01:46:31;;;;;;;2.83;1.48;;;;;;;-3.26;99.28;102541.56;4991146;28;20579;-42
2022/03/05 01:48:57;;;;;;;2.25;1.33;;;;;;;-3.27;99.06;102545.03;4990761;28;20673;-44
2022/03/05 01:51:22;;;;;;;3.70;1.48;;;;;;;-3.23;99.53;102540.81;4990588;28;20205;-42
2022/03/05 01:53:47;;;;;;;5.80;1.40;;;;;;;-3.20;99.89;102546.19;4990491;28;20165;-46
2022/03/05 01:56:14;;;;;;;2.60;1.35;;;;;;;-3.24;99.61;102541.63;4990298;28;20182;-43
2022/03/05 01:58:39;;;;;;;3.50;1.30;;;;;;;-3.24;99.53;102539.91;4990612;28;20279;-45
2022/03/05 02:01:05;;;;;;;1.63;1.25;;;;;;;-3.20;99.62;102541.84;4990673;28;20213;-41
2022/03/05 02:03:30;;;;;;;3.08;1.30;;;;;;;-3.12;100.00;102539.59;4990051;28;20173;-44
2022/03/05 02:05:56;;;;;;;3.20;1.30;;;;;;;-3.23;100.00;102539.09;4990685;28;20724;-45
2022/03/05 02:08:21;;;;;;;1.50;1.25;;;;;;;-3.08;100.00;102538.91;4990223;28;20210;-43
2022/03/05 02:10:47;;;;;;;3.20;1.17;;;;;;;-3.01;100.00;102530.47;4990097;28;20637;-43
2022/03/05 02:13:12;;;;;;;1.67;1.05;;;;;;;-2.93;100.00;102525.56;4990239;28;20193;-42
2022/03/05 02:15:38;;;;;;;5.97;1.40;;;;;;;-2.90;100.00;102518.72;4990388;28;20691;-46
2022/03/05 02:18:04;;;;;;;3.35;1.42;;;;;;;-2.85;100.00;102537.28;4957042;28;20184;-45
2022/03/05 02:20:30;;;;;;;2.08;1.20;;;;;;;-2.79;100.00;102523.56;4990385;28;20194;-43
2022/03/05 02:22:56;;;;;;;4.22;1.73;;;;;;;-2.79;100.00;102528.81;4989861;28;20224;-42
2022/03/05 02:25:21;;;;;;;6.22;1.63;;;;;;;-2.76;100.00;102532.44;4990559;28;20173;-42
2022/03/05 02:27:47;;;;;;;5.78;1.60;;;;;;;-2.72;100.00;102525.59;4972858;28;20178;-43
2022/03/05 02:30:12;;;;;;;4.70;1.63;;;;;;;-2.72;100.00;102526.50;4990390;28;20643;-46
2022/03/05 02:32:38;;;;;;;3.10;1.30;;;;;;;-2.69;100.00;102530.97;4989868;28;20232;-44
2022/03/05 02:35:04;;;;;;;2.20;1.30;;;;;;;-2.61;100.00;102532.22;4990338;28;20177;-43
2022/03/05 02:37:29;;;;;;;1.85;1.02;;;;;;;-2.57;100.00;102526.28;4977213;28;20194;-43
2022/03/05 02:39:56;;;;;;;2.83;1.30;;;;;;;-2.56;100.00;102532.41;4986676;28;20182;-47
2022/03/05 02:42:21;;;;;;;5.00;1.40;;;;;;;-2.43;100.00;102525.97;4989413;28;20284;-44
2022/03/05 02:44:47;;;;;;;3.20;1.23;;;;;;;-2.38;100.00;102532.31;4989600;28;20610;-43
2022/03/05 02:47:12;;;;;;;2.78;1.45;;;;;;;-2.39;100.00;102536.66;4990536;28;20181;-43
2022/03/05 02:49:39;;;;;;;2.47;1.50;;;;;;;-2.30;100.00;102525.63;4990259;28;20182;-44
2022/03/05 02:52:05;;;;;;;4.18;1.30;;;;;;;-2.24;100.00;102531.16;4989439;28;20193;-44
2022/03/05 02:54:30;;;;;;;3.03;1.40;;;;;;;-2.22;100.00;102521.59;4990826;28;20177;-44
2022/03/05 02:56:55;;;;;;;3.42;1.00;;;;;;;-2.18;100.00;102539.28;4993349;28;20675;-47
2022/03/05 02:59:21;;;;;;;4.63;1.30;;;;;;;-2.14;100.00;102540.31;4993605;28;20184;-43
2022/03/05 03:01:46;;;;;;;3.95;1.23;;;;;;;-2.10;100.00;102534.34;4993151;28;20213;-42
2022/03/05 03:04:12;;;;;;;3.60;1.20;;;;;;;-2.04;100.00;102525.81;4993781;28;20165;-45
2022/03/05 03:06:38;;;;;;;2.33;1.17;;;;;;;-2.04;100.00;102528.44;4993541;28;20648;-49
2022/03/05 03:09:03;;;;;;;4.45;1.10;;;;;;;-2.04;100.00;102523.19;4992995;28;20186;-47
2022/03/05 03:11:29;;;;;;;4.75;1.23;;;;;;;-2.12;100.00;102529.03;4993348;28;20189;-47
2022/03/05 03:13:55;;;;;;;2.40;1.33;;;;;;;-2.05;100.00;102526.66;4992631;28;20598;-47
2022/03/05 03:16:20;;;;;;;2.85;1.17;;;;;;;-2.01;100.00;102533.81;4993211;28;20260;-45
2022/03/05 03:18:46;;;;;;;2.13;1.20;;;;;;;-1.94;100.00;102535.88;4992837;28;20215;-48
2022/03/05 03:21:12;;;;;;;3.40;1.38;;;;;;;-1.93;100.00;102537.66;4993090;28;20563;-48
2022/03/05 03:23:37;;;;;;;3.08;1.10;;;;;;;-1.88;100.00;102542.28;4992575;28;20180;-45
2022/03/05 03:26:04;;;;;;;2.45;1.00;;;;;;;-1.86;100.00;102534.44;5007927;28;20632;-49
2022/03/05 03:28:29;;;;;;;3.67;1.40;;;;;;;-1.87;100.00;102535.28;4992844;28;20247;-46
2022/03/05 03:30:55;;;;;;;4.93;1.63;;;;;;;-1.83;100.00;102531.06;4992740;28;20177;-45
2022/03/05 03:33:21;;;;;;;3.15;1.23;;;;;;;-1.83;100.00;102526.69;4992135;28;20699;-46
2022/03/05 03:35:46;;;;;;;1.92;1.13;;;;;;;-1.79;100.00;102527.69;4992578;28;20174;-47
2022/03/05 03:38:12;;;;;;;1.50;0.93;;;;;;;-1.81;100.00;102517.16;4992657;28;20181;-47
2022/03/05 03:40:37;;;;;;;1.85;1.17;;;;;;;-1.80;100.00;102518.91;4992862;28;20197;-45
2022/03/05 03:43:03;;;;;;;2.03;1.27;;;;;;;-1.90;100.00;102522.03;4992167;28;20197;-46
2022/03/05 03:45:28;;;;;;;3.97;1.20;;;;;;;-1.87;100.00;102524.78;4975267;28;20173;-48
2022/03/05 03:47:54;;;;;;;2.65;1.10;;;;;;;-1.94;100.00;102522.75;4992828;28;20239;-48
2022/03/05 03:50:22;;;;;;;3.08;1.00;;;;;;;-1.99;100.00;102516.38;4992327;28;20224;-45
2022/03/05 03:52:48;;;;;;;2.08;0.98;;;;;;;-1.97;100.00;102525.22;4992323;28;20820;-47
2022/03/05 03:55:17;;;;;;;2.00;1.10;;;;;;;-1.99;100.00;102526.91;4992415;28;20216;-47
2022/03/05 03:57:44;;;;;;;3.80;1.30;;;;;;;-2.09;100.00;102520.38;4992281;28;20193;-47
2022/03/05 04:00:13;;;;;;;4.03;1.15;;;;;;;-2.16;100.00;102528.84;4992419;28;20205;-46
2022/03/05 04:02:39;;;;;;;3.78;1.20;;;;;;;-2.18;100.00;102520.91;4991870;28;20209;-46
2022/03/05 04:05:05;;;;;;;2.03;1.10;;;;;;;-2.24;100.00;102531.16;4992261;28;20177;-48
2022/03/05 04:10:15;;;;;;;1.20;1.05;;;;;;;-2.28;100.00;102535.38;4992683;28;20596;-45
2022/03/05 04:12:40;;;;;;;1.50;1.08;;;;;;;-2.30;100.00;102525.63;4991598;28;20197;-45
2022/03/05 04:15:07;;;;;;;4.70;1.20;;;;;;;-2.30;100.00;102536.13;4992466;28;20611;-47
2022/03/05 04:17:32;;;;;;;3.17;1.10;;;;;;;-2.31;100.00;102534.38;4992334;28;20204;-46
2022/03/05 04:19:58;;;;;;;5.35;1.27;;;;;;;-2.29;100.00;102533.59;4991934;28;20169;-46
2022/03/05 04:22:24;;;;;;;5.25;1.10;;;;;;;-2.30;100.00;102533.50;4991476;28;20197;-47
2022/03/05 04:24:50;;;;;;;6.07;1.33;;;;;;;-2.33;100.00;102536.03;4991908;28;20183;-48
2022/03/05 04:27:16;;;;;;;2.08;0.80;;;;;;;-2.31;100.00;102522.13;4992077;28;20169;-46
2022/03/05 04:29:41;;;;;;;3.85;1.10;;;;;;;-2.48;100.00;102531.00;4992160;28;20236;-46
2022/03/05 04:32:07;;;;;;;2.80;1.05;;;;;;;-2.49;100.00;102524.88;4991067;28;20276;-48
2022/03/05 04:34:33;;;;;;;0.82;0.77;;;;;;;-2.46;100.00;102523.22;4992132;28;20181;-46
2022/03/05 04:36:58;;;;;;;2.97;0.90;;;;;;;-2.45;100.00;102528.50;4990860;28;20190;-49
2022/03/05 04:39:24;;;;;;;5.28;1.65;;;;;;;-2.42;100.00;102522.53;4991170;28;20226;-45
2022/03/05 04:41:49;;;;;;;4.90;1.48;;;;;;;-2.49;100.00;102524.88;4990617;28;20217;-44
2022/03/05 04:44:16;;;;;;;3.75;1.33;;;;;;;-2.53;100.00;102522.94;4991309;28;20219;-46
2022/03/05 04:46:42;;;;;;;2.78;1.00;;;;;;;-2.44;100.00;102519.81;4990396;28;20189;-46
2022/03/05 04:49:08;;;;;;;2.67;1.27;;;;;;;-2.36;100.00;102528.00;4998893;28;20174;-47
2022/03/05 04:51:34;;;;;;;2.72;1.20;;;;;;;-2.34;100.00;102522.00;4990914;28;20263;-46
2022/03/05 04:53:59;;;;;;;3.70;1.13;;;;;;;-2.33;100.00;102518.53;4991164;28;20628;-47
2022/03/05 04:56:24;;;;;;;4.85;1.45;;;;;;;-2.32;100.00;102530.84;4991323;28;20173;-47
2022/03/05 04:58:50;;;;;;;4.63;1.38;;;;;;;-2.25;100.00;102528.44;4991465;28;20265;-47
2022/03/05 05:01:15;;;;;;;1.67;1.08;;;;;;;-2.21;100.00;102531.25;5006331;28;20201;-49
2022/03/05 05:03:41;;;;;;;3.33;1.20;;;;;;;-2.32;100.00;102530.84;4990781;28;20173;-47
2022/03/05 05:06:07;;;;;;;7.20;1.45;;;;;;;-2.30;100.00;102541.38;4991157;28;20185;-46
2022/03/05 05:08:33;;;;;;;5.75;1.42;;;;;;;-2.28;100.00;102540.63;4991188;28;20169;-46
2022/03/05 05:10:58;;;;;;;4.05;1.40;;;;;;;-2.30;100.00;102539.69;4990902;28;20268;-49
2022/03/05 05:13:24;;;;;;;3.65;1.52;;;;;;;-2.31;100.00;102530.00;4991125;28;20212;-48
2022/03/05 05:15:49;;;;;;;3.33;1.23;;;;;;;-2.26;100.00;102531.91;4991069;28;20197;-47
2022/03/05 05:18:15;;;;;;;4.40;1.50;;;;;;;-2.27;100.00;102538.91;4991402;28;20181;-48
2022/03/05 05:20:41;;;;;;;5.30;2.08;;;;;;;-2.21;100.00;102533.88;4990699;28;20220;-48
2022/03/05 05:23:06;;;;;;;7.00;1.50;;;;;;;-2.23;100.00;102538.22;4990115;28;20193;-47
2022/03/05 05:25:32;;;;;;;5.93;1.63;;;;;;;-2.16;100.00;102537.63;4976363;28;20165;-48
2022/03/05 05:27:57;;;;;;;3.78;1.38;;;;;;;-2.06;100.00;102541.50;4990787;28;20181;-43
2022/03/05 05:30:23;;;;;;;4.05;1.65;;;;;;;-2.03;100.00;102552.16;4990981;28;20178;-47
2022/03/05 05:32:48;;;;;;;3.88;1.60;;;;;;;-2.04;100.00;102545.09;4989951;28;20193;-47
2022/03/05 05:35:14;;;;;;;2.85;1.20;;;;;;;-2.02;100.00;102555.69;4990675;28;20199;-45
2022/03/05 05:37:40;;;;;;;4.20;1.48;;;;;;;-2.00;100.00;102546.13;4990772;28;20176;-45
2022/03/05 05:40:06;;;;;;;2.40;1.27;;;;;;;-1.93;100.00;102554.31;4990059;28;20189;-48
2022/03/05 05:42:32;;;;;;;4.97;1.55;;;;;;;-1.90;100.00;102540.44;4990228;28;20305;-47
2022/03/05 05:44:57;;;;;;;3.92;1.50;;;;;;;-1.98;100.00;102555.84;4990504;28;20174;-49
2022/03/05 05:47:23;;;;;;;3.35;1.40;;;;;;;-2.01;100.00;102558.38;4990670;28;20181;-48
2022/03/05 05:49:49;;;;;;;6.50;1.85;;;;;;;-1.96;100.00;102564.69;4990473;28;20187;-48
2022/03/05 05:52:14;;;;;;;5.10;1.35;;;;;;;-1.89;100.00;102555.34;4989732;28;20194;-48
2022/03/05 05:54:40;;;;;;;3.63;1.50;;;;;;;-1.82;100.00;102562.63;4990027;28;20173;-48
2022/03/05 05:57:05;;;;;;;2.95;1.40;;;;;;;-1.80;100.00;102560.06;4990291;28;20208;-46
2022/03/05 05:59:32;;;;;;;5.25;1.60;;;;;;;-1.80;100.00;102562.69;4990548;28;20173;-48
2022/03/05 06:01:59;;;;;;;5.18;1.40;;;;;;;-1.89;100.00;102556.22;4989383;28;20216;-46
2022/03/05 06:04:24;;;;;;;1.85;1.20;;;;;;;-1.82;100.00;102551.22;4989996;28;20174;-47
2022/03/05 06:06:50;;;;;;;5.22;1.80;;;;;;;-1.70;100.00;102546.47;4990078;28;20194;-50
2022/03/05 06:09:16;;;;;;;5.65;1.52;;;;;;;-1.79;100.00;102568.03;4989594;28;20166;-49
2022/03/05 06:11:41;;;;;;;4.57;1.38;;;;;;;-1.59;100.00;102557.41;4989744;28;20193;-43
2022/03/05 06:14:07;;;;;;;1.40;1.30;;;;;;;-1.60;100.00;102569.63;4990039;28;20170;-47
2022/03/05 06:16:33;;;;;;;4.55;1.83;;;;;;;-1.55;100.00;102565.47;4988492;28;20186;-48
2022/03/05 06:18:58;;;;;;;4.25;1.65;;;;;;;-1.58;100.00;102564.44;4990258;28;20228;-48
2022/03/05 06:21:23;;;;;;;5.55;1.88;;;;;;;-1.64;100.00;102577.34;4989641;28;20197;-47
2022/03/05 06:23:49;;;;;;;3.35;1.40;;;;;;;-1.64;100.00;102572.09;4988982;28;20170;-47
2022/03/05 06:26:15;;;;;;;4.47;1.67;;;;;;;-1.46;100.00;102570.19;4990230;28;20187;-46
2022/03/05 06:28:40;;;;;;;3.28;1.90;;;;;;;-1.42;100.00;102569.50;4989829;28;20193;-47
2022/03/05 06:31:06;;;;;;;4.47;1.50;;;;;;;-1.41;100.00;102579.16;4993462;28;20180;-44
2022/03/05 06:33:31;;;;;;;2.72;1.63;;;;;;;-1.30;100.00;102566.41;4975542;28;20173;-48
2022/03/05 06:35:57;;;;;;;3.42;1.73;;;;;;;-1.31;100.00;102576.06;4993462;28;20232;-47
2022/03/05 06:38:22;;;;;;;3.97;1.83;;;;;;;-1.24;100.00;102577.19;4993521;28;20169;-47
2022/03/05 06:40:49;;;;;;;4.70;1.80;;;;;;;-1.23;100.00;102568.44;4993539;28;20194;-49
2022/03/05 06:43:15;;;;;;;5.00;1.90;;;;;;;-1.21;100.00;102568.50;4975561;28;20204;-50
2022/03/05 06:45:41;;;;;;;4.55;1.70;;;;;;;-1.13;100.00;102567.06;4993286;28;20185;-44
2022/03/05 06:48:07;;;;;;;3.80;1.55;;;;;;;-1.09;100.00;102568.97;4993220;28;20180;-43
2022/03/05 06:50:33;;;;;;;5.05;1.60;;;;;;;-1.06;100.00;102563.81;4993680;28;20177;-44
2022/03/05 06:52:58;;;;;;;6.53;1.92;;;;;;;-1.03;100.00;102569.19;4992273;28;20196;-46
2022/03/05 06:55:24;;;;;;;2.75;1.67;;;;;;;-0.95;100.00;102566.84;4993554;28;20170;-49
2022/03/05 06:57:49;;;;;;;4.35;1.30;;;;;;;-0.99;100.00;102568.47;4993464;28;20265;-45
2022/03/05 07:00:15;;;;;;;4.05;1.58;;;;;;;-0.96;100.00;102572.94;4993423;28;20198;-44
2022/03/05 07:02:42;;;;;;;4.25;1.60;;;;;;;-0.97;100.00;102579.94;4992725;28;20197;-45
2022/03/05 07:05:09;;;;;;;5.93;1.80;;;;;;;-0.89;100.00;102570.59;4992823;28;20219;-47
2022/03/05 07:07:34;;;;;;;3.63;1.50;;;;;;;-0.97;100.00;102577.31;4993203;28;20205;-46
2022/03/05 07:09:59;;;;;;;3.38;1.95;;;;;;;-0.84;100.00;102566.41;4997315;28;20432;-47
2022/03/05 07:12:25;;;;;;;5.75;1.95;;;;;;;-0.76;100.00;102585.13;4992751;28;20197;-47
2022/03/05 07:14:51;;;;;;;4.50;2.10;;;;;;;-0.67;100.00;102576.66;4975756;28;20820;-49
2022/03/05 07:17:16;;;;;;;6.85;2.15;;;;;;;-0.62;100.00;102580.34;4993071;28;20185;-48
2022/03/05 07:19:42;;;;;;;2.85;1.90;;;;;;;-0.55;100.00;102577.06;4993230;28;20660;-45
2022/03/05 07:22:07;;;;;;;2.85;1.63;;;;;;;-0.46;100.00;102576.50;4974698;28;20209;-48
2022/03/05 07:24:33;;;;;;;3.63;1.70;;;;;;;-0.29;100.00;102585.88;4992948;28;20189;-46
2022/03/05 07:26:58;;;;;;;4.50;1.65;;;;;;;-0.25;100.00;102584.28;4993383;28;20176;-46
2022/03/05 07:29:24;;;;;;;5.93;1.80;;;;;;;-0.17;100.00;102574.00;4992769;28;20540;-47
2022/03/05 07:31:49;;;;;;;8.00;2.00;;;;;;;0.47;100.00;102576.09;4992416;28;20197;-49
2022/03/05 07:34:14;;;;;;;5.13;2.30;;;;;;;0.58;99.66;102577.31;4992589;28;20240;-45
2022/03/05 07:36:40;;;;;;;3.95;2.20;;;;;;;0.75;99.19;102583.13;4992619;28;20239;-44
2022/03/05 07:39:07;;;;;;;5.47;2.10;;;;;;;0.69;98.06;102580.28;4993099;28;20174;-47
2022/03/05 07:41:34;;;;;;;7.22;2.50;;;;;;;0.56;97.21;102581.66;4990894;28;20215;-46
2022/03/05 07:43:59;;;;;;;4.38;1.63;;;;;;;0.58;96.48;102582.59;4992800;28;20257;-46
2022/03/05 07:46:25;;;;;;;4.65;1.90;;;;;;;0.96;96.23;102577.59;4992999;28;20240;-45
2022/03/05 07:48:50;;;;;;;6.45;2.03;;;;;;;0.93;95.55;102590.69;4992673;28;20649;-49
2022/03/05 07:51:16;;;;;;;4.78;1.80;;;;;;;1.14;94.86;102579.00;4992333;28;20581;-46
2022/03/05 07:53:41;;;;;;;4.30;1.92;;;;;;;0.96;93.75;102581.97;4992035;28;20176;-45
2022/03/05 07:56:06;;;;;;;6.65;1.98;;;;;;;1.65;93.33;102579.53;4992606;28;20170;-47
2022/03/05 07:58:32;;;;;;;4.07;2.10;;;;;;;1.89;91.65;102577.50;4992372;28;20173;-47
2022/03/05 08:00:58;;;;;;;5.43;1.60;;;;;;;1.92;90.47;102573.16;5007265;28;20233;-47
2022/03/05 08:03:23;;;;;;;4.00;1.98;;;;;;;1.71;89.90;102586.72;4992019;28;20675;-45
2022/03/05 08:05:49;;;;;;;3.20;1.88;;;;;;;1.90;89.63;102589.84;4991884;28;20201;-45
2022/03/05 08:08:14;;;;;;;4.13;1.77;;;;;;;2.09;88.81;102576.25;4996991;28;20180;-47
2022/03/05 08:10:40;;;;;;;4.50;1.63;;;;;;;2.33;88.13;102577.69;4992316;28;20176;-46
2022/03/05 08:13:05;;;;;;;7.63;2.03;;;;;;;2.54;87.66;102579.97;4991383;28;20202;-47
2022/03/05 08:15:31;;;;;;;4.07;1.75;;;;;;;2.37;86.22;102577.81;4992315;28;20178;-47
2022/03/05 08:17:59;;;;;;;3.58;1.80;;;;;;;2.53;85.88;102584.34;4992301;28;20247;-48
2022/03/05 08:20:27;;;;;;;3.17;1.88;;;;;;;2.70;85.76;102590.03;4991598;28;20626;-47
2022/03/05 08:22:53;;;;;;;3.38;1.70;;;;;;;2.78;84.73;102575.22;4991398;28;20703;-48
2022/03/05 08:25:19;;;;;;;6.22;1.85;;;;;;;2.92;84.70;102580.81;4991815;28;20178;-45
2022/03/05 08:27:44;;;;;;;4.35;2.03;;;;;;;2.96;83.90;102584.44;4991903;28;20185;-45
2022/03/05 08:30:11;;;;;;;5.55;2.05;;;;;;;2.84;82.56;102579.72;4991876;28;20175;-45
2022/03/05 08:32:36;;;;;;;5.20;1.88;;;;;;;2.83;81.81;102577.97;4988682;28;20209;-46
2022/03/05 08:35:03;;;;;;;4.90;1.23;;;;;;;2.86;80.58;102588.59;4988590;28;20825;-48
2022/03/05 08:37:29;;;;;;;3.58;1.50;;;;;;;2.87;77.13;102591.28;4990144;28;20554;-47
2022/03/05 08:39:54;;;;;;;3.72;1.17;;;;;;;2.97;74.44;102586.19;4989987;28;20177;-46
2022/03/05 08:42:20;;;;;;;3.40;1.10;;;;;;;2.85;72.68;102582.44;4989466;28;20296;-48
2022/03/05 08:44:46;;;;;;;2.20;1.10;;;;;;;3.04;72.46;102583.72;4990020;28;20185;-48
2022/03/05 08:47:12;;;;;;;4.25;1.48;;;;;;;3.18;71.50;102583.13;5004790;28;20629;-47
2022/03/05 08:49:37;;;;;;;5.35;1.42;;;;;;;3.21;71.18;102578.75;4991092;28;20248;-46
2022/03/05 08:52:03;;;;;;;3.05;1.30;;;;;;;3.31;69.76;102585.16;4995389;28;20252;-48
2022/03/05 08:54:29;;;;;;;2.72;1.38;;;;;;;3.38;69.44;102580.88;4991222;28;20220;-48
2022/03/05 08:56:54;;;;;;;2.60;1.17;;;;;;;3.25;69.08;102583.25;4991465;28;20185;-48
2022/03/05 08:59:20;;;;;;;4.85;1.00;;;;;;;3.58;68.36;102579.47;4991574;28;20172;-47
2022/03/05 09:01:45;;;;;;;1.70;1.10;;;;;;;3.70;66.80;102576.19;4990455;28;20232;-48
2022/03/05 09:04:12;;;;;;;3.63;1.10;;;;;;;3.21;65.54;102581.41;4988413;28;20185;-45
2022/03/05 09:06:38;;;;;;;2.22;0.80;;;;;;;3.51;65.15;102569.63;4990602;28;20177;-47
2022/03/05 09:09:05;;;;;;;1.88;0.90;;;;;;;3.35;63.28;102575.53;4990905;28;20189;-47
2022/03/05 09:11:30;;;;;;;1.65;0.98;;;;;;;3.18;63.75;102576.06;4990391;28;20617;-41
2022/03/05 09:13:56;;;;;;;2.88;1.10;;;;;;;3.55;62.65;102576.78;4990458;28;20324;-45
2022/03/05 09:16:21;;;;;;;2.28;0.90;;;;;;;3.38;62.35;102570.25;4991076;28;20323;-47
2022/03/05 09:18:47;;;;;;;1.33;0.95;;;;;;;3.11;61.28;102574.16;4990370;28;20289;-48
2022/03/05 09:21:12;;;;;;;1.33;0.80;;;;;;;3.28;62.16;102572.75;4990931;28;20221;-45
2022/03/05 09:23:38;;;;;;;2.55;0.98;;;;;;;3.45;60.92;102567.75;4990531;28;20323;-48
2022/03/05 09:26:04;;;;;;;1.35;0.85;;;;;;;2.99;61.94;102579.19;4990748;28;20272;-49
2022/03/05 09:28:29;;;;;;;3.50;1.27;;;;;;;2.72;63.18;102574.19;4989928;28;20657;-42
2022/03/05 09:30:55;;;;;;;1.58;1.20;;;;;;;2.58;64.31;102587.09;4989121;28;20267;-43
2022/03/05 09:33:22;;;;;;;1.92;0.98;;;;;;;2.48;64.47;102581.59;4989007;28;20197;-40
2022/03/05 09:35:50;;;;;;;1.40;0.93;;;;;;;2.52;65.16;102579.03;4989105;28;20177;-43
2022/03/05 09:38:15;;;;;;;1.98;0.88;;;;;;;2.72;64.39;102588.31;4972102;28;20223;-38
2022/03/05 09:40:41;;;;;;;2.88;1.08;;;;;;;2.61;64.20;102579.25;4989233;28;20221;-45
2022/03/05 09:43:07;;;;;;;2.90;1.30;;;;;;;2.48;65.30;102588.66;4988848;28;20846;-45
2022/03/05 09:45:33;;;;;;;2.22;0.90;;;;;;;2.92;64.62;102580.81;4989703;28;20182;-42
2022/03/05 09:47:59;;;;;;;1.15;0.85;;;;;;;2.71;64.54;102575.03;4989165;28;20196;-43
2022/03/05 09:50:28;;;;;;;1.50;0.85;;;;;;;2.72;64.19;102583.03;4990348;28;20173;-42
2022/03/05 09:52:55;;;;;;;1.85;0.60;;;;;;;2.70;64.22;102597.97;4989682;28;20252;-41
2022/03/05 09:55:20;;;;;;;3.20;0.88;;;;;;;2.70;64.33;102583.84;4990283;28;20166;-45
2022/03/05 09:57:45;;;;;;;1.50;1.00;;;;;;;2.54;64.57;102587.91;4990768;28;20177;-39
2022/03/05 10:00:11;;;;;;;1.65;0.88;;;;;;;2.65;64.55;102579.34;4990619;28;20165;-43
2022/03/05 10:02:38;;;;;;;2.58;1.00;;;;;;;2.96;64.70;102576.47;4990086;28;20228;-41
2022/03/05 10:05:17;;;;;;;2.30;0.95;;;;;;;3.20;64.15;102584.03;4992328;28;20548;-44
2022/03/05 10:08:10;;;;;;;2.72;1.00;;;;;;;3.67;62.79;102566.41;4976930;28;20211;-40
2022/03/05 10:10:46;;;;;;;3.45;1.20;;;;;;;3.12;62.34;102567.97;5009839;28;20597;-42
2022/03/05 10:13:16;;;;;;;1.77;0.70;;;;;;;2.81;62.78;102569.97;4993643;28;20239;-43
2022/03/05 10:15:42;;;;;;;3.00;1.10;;;;;;;3.05;63.72;102577.56;4994721;28;20597;-44
2022/03/05 10:18:07;;;;;;;3.65;1.23;;;;;;;3.14;63.72;102575.97;4994269;28;20169;-42
2022/03/05 10:20:41;;;;;;;1.77;0.90;;;;;;;3.25;63.60;102566.47;4994212;28;20205;-42
2022/03/05 10:23:08;;;;;;;2.15;0.90;;;;;;;2.93;62.61;102568.44;4994049;28;20223;-40
2022/03/05 10:25:39;;;;;;;2.17;0.80;;;;;;;3.14;63.39;102578.63;4994465;28;20324;-43
2022/03/05 10:28:16;;;;;;;1.38;1.00;;;;;;;3.11;63.24;102576.81;4994798;28;20178;-42
2022/03/05 10:30:52;;;;;;;2.90;0.98;;;;;;;3.06;63.68;102566.13;4993897;28;20177;-43
2022/03/05 10:34:01;;;;;;;5.22;1.20;;;;;;;3.17;63.42;102570.72;4974888;28;20292;-43
2022/03/05 10:36:26;;;;;;;4.68;1.20;;;;;;;3.27;64.13;102555.03;4972645;28;20201;-44
2022/03/05 10:39:00;;;;;;;2.05;0.82;;;;;;;3.69;63.44;102558.47;4974637;28;20611;-42
2022/03/05 10:41:33;;;;;;;2.55;0.80;;;;;;;4.10;61.67;102556.53;4989554;28;20241;-41
2022/03/05 10:44:06;;;;;;;1.50;0.90;;;;;;;3.62;60.46;102557.47;4974452;28;20237;-42
2022/03/05 10:46:55;;;;;;;1.80;0.85;;;;;;;3.50;60.96;102568.75;4974595;28;20162;-40
2022/03/05 10:49:36;;;;;;;1.30;0.80;;;;;;;3.56;61.00;102561.75;4974625;28;20163;-40
2022/03/05 10:52:08;;;;;;;0.73;0.73;;;;;;;3.70;60.55;102547.91;4970814;28;20205;-41
2022/03/05 10:54:42;;;;;;;3.95;1.00;;;;;;;3.46;60.81;102572.19;4968172;28;20185;-41
2022/03/05 10:57:15;;;;;;;1.33;0.90;;;;;;;3.09;61.58;102562.63;4968419;28;20178;-40
2022/03/05 10:59:52;;;;;;;2.80;1.30;;;;;;;3.10;62.32;102561.75;4973267;28;20185;-40
2022/03/05 11:02:19;;;;;;;0.98;0.90;;;;;;;3.28;62.09;102562.16;4973869;28;20280;-41
2022/03/05 11:04:46;;;;;;;3.35;1.13;;;;;;;3.32;61.98;102560.44;4974112;28;20248;-41
2022/03/05 11:07:13;;;;;;;3.30;1.00;;;;;;;3.46;62.27;102577.50;4974740;28;20231;-42
2022/03/05 11:09:42;;;;;;;3.80;1.27;;;;;;;3.23;61.12;102562.91;4974992;28;20205;-44
2022/03/05 11:12:09;;;;;;;2.20;1.10;;;;;;;2.94;61.31;102563.19;4974080;28;20516;-44
2022/03/05 11:14:38;;;;;;;2.25;1.02;;;;;;;3.49;61.10;102566.06;4974305;28;20177;-40
2022/03/05 11:17:05;;;;;;;2.45;1.10;;;;;;;3.88;60.81;102559.69;4974275;28;20220;-42
2022/03/05 11:19:31;;;;;;;1.48;0.85;;;;;;;3.81;59.81;102556.06;4974448;28;20174;-38
2022/03/05 11:21:57;;;;;;;1.88;1.00;;;;;;;3.27;59.96;102565.63;4973639;28;20213;-39